Time;durP1;ratioP1;P1;durP2;ratioP2;P2;SDS_P1;SDS_P2;PMS_P1;PMS_P2;Temp;Humidity;BMP_temperature;BMP_pressure;BME280_temperature;BME280_humidity;BME280_pressure;Samples;Min_cycle;Max_cycle;Signal;HPM_P1;HPM_P2
2022/09/11 00:00:26;;;;;;;20.15;14.82;;;19.00;99.90;;;;;;5054335;28;20583;-46
2022/09/11 00:02:52;;;;;;;17.83;14.25;;;19.00;99.90;;;;;;5056783;28;20569;-47
2022/09/11 00:05:17;;;;;;;22.45;14.98;;;19.00;99.90;;;;;;5056183;28;20561;-47
2022/09/11 00:07:43;;;;;;;22.00;14.65;;;19.00;99.90;;;;;;5054984;28;20317;-54
2022/09/11 00:10:09;;;;;;;18.80;15.20;;;19.00;99.90;;;;;;5050584;28;20221;-47
2022/09/11 00:12:34;;;;;;;24.38;15.60;;;19.00;99.90;;;;;;5075793;28;20179;-48
2022/09/11 00:15:00;;;;;;;24.58;15.75;;;19.00;99.90;;;;;;5056296;28;20199;-52
2022/09/11 00:17:26;;;;;;;18.88;15.25;;;19.00;99.90;;;;;;5054882;28;20183;-46
2022/09/11 00:19:52;;;;;;;22.35;16.48;;;18.90;99.90;;;;;;5045963;28;20658;-49
2022/09/11 00:22:17;;;;;;;23.92;16.55;;;19.00;99.90;;;;;;5053893;28;20207;-51
2022/09/11 00:24:43;;;;;;;19.92;15.57;;;19.00;99.90;;;;;;5053548;28;20171;-45
2022/09/11 00:27:09;;;;;;;22.65;15.73;;;18.90;99.90;;;;;;5054559;28;20699;-49
2022/09/11 00:29:34;;;;;;;19.52;16.05;;;18.90;99.90;;;;;;5050190;28;20696;-48
2022/09/11 00:32:00;;;;;;;21.63;16.15;;;18.80;99.90;;;;;;5051180;28;20183;-52
2022/09/11 00:34:26;;;;;;;21.38;15.60;;;18.80;99.90;;;;;;5055735;28;20183;-53
2022/09/11 00:36:52;;;;;;;18.55;16.55;;;18.80;99.90;;;;;;5054625;28;20601;-49
2022/09/11 00:39:17;;;;;;;20.50;16.67;;;18.80;99.90;;;;;;5054566;28;20179;-47
2022/09/11 00:41:45;;;;;;;26.33;17.17;;;18.70;99.90;;;;;;5036165;28;20219;-45
2022/09/11 00:44:16;;;;;;;27.23;17.73;;;18.70;99.90;;;;;;5035355;28;20176;-45
2022/09/11 00:46:48;;;;;;;26.58;17.38;;;18.70;99.90;;;;;;5070550;28;20207;-48
2022/09/11 00:49:23;;;;;;;20.30;17.42;;;18.70;99.90;;;;;;5054122;28;20175;-49
2022/09/11 00:51:53;;;;;;;19.27;16.95;;;18.60;99.90;;;;;;5049400;28;20273;-48
2022/09/11 00:54:24;;;;;;;25.67;16.63;;;18.60;99.90;;;;;;5054690;28;20171;-48
2022/09/11 00:56:51;;;;;;;22.23;17.33;;;18.50;99.90;;;;;;5054311;28;20179;-51
2022/09/11 00:59:24;;;;;;;21.10;16.77;;;18.50;99.90;;;;;;5055290;28;20191;-49
2022/09/11 01:01:50;;;;;;;24.58;17.80;;;18.50;99.90;;;;;;5045438;28;20232;-61
2022/09/11 01:04:16;;;;;;;21.63;17.05;;;18.50;99.90;;;;;;5053217;28;20554;-49
2022/09/11 01:06:42;;;;;;;23.77;17.67;;;18.50;99.90;;;;;;5035895;28;20180;-51
2022/09/11 01:09:08;;;;;;;23.25;17.20;;;18.40;99.90;;;;;;5053549;28;20183;-50
2022/09/11 01:12:18;;;;;;;22.08;17.00;;;18.40;99.90;;;;;;5062237;28;20569;-46
2022/09/11 01:15:02;;;;;;;22.67;17.10;;;18.30;99.90;;;;;;5050826;28;20179;-47
2022/09/11 01:17:31;;;;;;;25.65;18.38;;;18.30;99.90;;;;;;5054925;28;20608;-52
2022/09/11 01:20:18;;;;;;;26.17;17.48;;;18.30;99.90;;;;;;5055029;28;20677;-49
2022/09/11 01:22:56;;;;;;;24.02;16.65;;;18.30;99.90;;;;;;5049753;28;20663;-48
2022/09/11 01:25:43;;;;;;;21.42;16.92;;;18.30;99.90;;;;;;5036104;28;20229;-49
2022/09/11 01:28:23;;;;;;;21.40;16.98;;;18.30;99.90;;;;;;5053508;28;20171;-47
2022/09/11 01:30:55;;;;;;;21.63;17.13;;;18.20;99.90;;;;;;5053686;28;20569;-47
2022/09/11 01:33:42;;;;;;;20.98;17.80;;;18.20;99.90;;;;;;5049755;28;20176;-48
2022/09/11 01:36:18;;;;;;;21.10;16.50;;;18.20;99.90;;;;;;5050045;28;20175;-50
2022/09/11 01:38:53;;;;;;;21.70;16.83;;;18.20;99.90;;;;;;5054232;28;20175;-51
2022/09/11 01:41:39;;;;;;;23.58;17.50;;;18.20;99.90;;;;;;5054634;28;20297;-47
2022/09/11 01:44:10;;;;;;;22.88;16.98;;;18.20;99.90;;;;;;5049443;28;20559;-59
2022/09/11 01:46:43;;;;;;;23.00;17.23;;;18.10;99.90;;;;;;5049392;28;20226;-48
2022/09/11 01:49:26;;;;;;;25.23;17.45;;;18.10;99.90;;;;;;5053188;28;20175;-50
2022/09/11 01:51:57;;;;;;;20.33;16.80;;;18.00;99.90;;;;;;5054116;28;20174;-52
2022/09/11 01:54:28;;;;;;;20.60;17.70;;;17.90;99.90;;;;;;5048699;28;20187;-61
2022/09/11 01:57:08;;;;;;;20.90;17.00;;;17.90;99.90;;;;;;5046955;28;20252;-49
2022/09/11 01:59:42;;;;;;;25.05;18.02;;;17.90;99.90;;;;;;5052954;28;20627;-49
2022/09/11 02:02:12;;;;;;;23.73;17.45;;;17.90;99.90;;;;;;5054054;28;20233;-45
2022/09/11 02:04:44;;;;;;;21.90;16.90;;;17.90;99.90;;;;;;5050771;28;20175;-51
2022/09/11 02:07:18;;;;;;;20.55;17.65;;;17.90;99.90;;;;;;5063266;28;20226;-49
2022/09/11 02:09:56;;;;;;;22.48;16.98;;;17.80;99.90;;;;;;5053281;28;20579;-49
2022/09/11 02:12:27;;;;;;;21.38;17.15;;;17.70;99.90;;;;;;5067473;28;20181;-46
2022/09/11 02:14:54;;;;;;;22.90;17.48;;;17.60;99.90;;;;;;5051367;28;20167;-50
2022/09/11 02:17:28;;;;;;;26.05;16.55;;;17.60;99.90;;;;;;5045263;28;20182;-51
2022/09/11 02:19:58;;;;;;;20.05;16.52;;;17.60;99.90;;;;;;5053758;28;20611;-46
2022/09/11 02:22:24;;;;;;;22.48;16.08;;;17.60;99.90;;;;;;5052004;28;20187;-50
2022/09/11 02:24:51;;;;;;;20.52;16.27;;;17.60;99.90;;;;;;5035130;28;20639;-49
2022/09/11 02:27:21;;;;;;;20.10;16.80;;;17.60;99.90;;;;;;5042801;28;20172;-50
2022/09/11 02:29:48;;;;;;;19.85;16.35;;;17.60;99.90;;;;;;5051863;28;20181;-51
2022/09/11 02:32:15;;;;;;;21.05;16.25;;;17.60;99.90;;;;;;5068780;28;20175;-48
2022/09/11 02:34:44;;;;;;;19.20;15.65;;;17.60;99.90;;;;;;5068982;28;20194;-51
2022/09/11 02:37:48;;;;;;;20.63;16.48;;;17.60;99.90;;;;;;5037570;28;20171;-61
2022/09/11 02:40:26;;;;;;;25.08;17.23;;;17.50;99.90;;;;;;5032116;28;20278;-51
2022/09/11 02:42:53;;;;;;;19.40;16.05;;;17.50;99.90;;;;;;5051536;28;20205;-50
2022/09/11 02:45:22;;;;;;;19.85;16.35;;;17.50;99.90;;;;;;5053336;28;20175;-50
2022/09/11 02:48:42;;;;;;;18.08;15.30;;;17.50;99.90;;;;;;5044311;28;20277;-52
2022/09/11 02:51:46;;;;;;;19.75;16.33;;;17.50;99.90;;;;;;5011209;28;20203;-49
2022/09/11 02:54:45;;;;;;;20.15;16.45;;;17.50;99.90;;;;;;4996994;28;20593;-48
2022/09/11 02:57:49;;;;;;;29.67;16.25;;;17.40;99.90;;;;;;5034882;28;20226;-51
2022/09/11 03:00:15;;;;;;;21.70;15.18;;;17.40;99.90;;;;;;5044981;28;20260;-51
2022/09/11 03:02:43;;;;;;;19.98;15.30;;;17.30;99.90;;;;;;5052151;28;20288;-51
2022/09/11 03:05:10;;;;;;;19.55;15.73;;;17.30;99.90;;;;;;5053306;28;20187;-48
2022/09/11 03:07:38;;;;;;;21.00;15.68;;;17.30;99.90;;;;;;5049685;28;20167;-46
2022/09/11 03:10:05;;;;;;;21.20;15.82;;;17.20;99.90;;;;;;5035106;28;20193;-47
2022/09/11 03:12:30;;;;;;;19.75;15.90;;;17.20;99.90;;;;;;5070796;28;20688;-50
2022/09/11 03:14:56;;;;;;;23.42;16.50;;;17.20;99.90;;;;;;5071780;28;20178;-50
2022/09/11 03:17:24;;;;;;;21.33;16.38;;;17.20;99.90;;;;;;5041585;28;20568;-50
2022/09/11 03:19:50;;;;;;;19.48;15.65;;;17.20;99.90;;;;;;5049981;28;20309;-49
2022/09/11 03:22:17;;;;;;;18.88;15.57;;;17.20;99.90;;;;;;5039623;28;20211;-51
2022/09/11 03:24:43;;;;;;;19.55;15.57;;;17.20;99.90;;;;;;5055171;28;20236;-51
2022/09/11 03:27:10;;;;;;;19.67;16.73;;;17.20;99.90;;;;;;5053218;28;20175;-49
2022/09/11 03:29:37;;;;;;;22.58;17.52;;;17.10;99.90;;;;;;5052074;28;20209;-46
2022/09/11 03:32:03;;;;;;;22.08;18.15;;;17.10;99.90;;;;;;5050557;28;20513;-50
2022/09/11 03:34:30;;;;;;;23.05;18.23;;;17.10;99.90;;;;;;5055602;28;20285;-46
2022/09/11 03:36:56;;;;;;;22.17;17.38;;;17.10;99.90;;;;;;5030756;28;20222;-49
2022/09/11 03:39:23;;;;;;;20.05;16.42;;;17.10;99.90;;;;;;5063146;28;20188;-49
2022/09/11 03:41:50;;;;;;;23.02;17.08;;;17.10;99.90;;;;;;5035720;28;20207;-46
2022/09/11 03:44:16;;;;;;;27.90;18.77;;;17.00;99.90;;;;;;5048307;28;20215;-47
2022/09/11 03:46:43;;;;;;;24.85;18.10;;;17.00;99.90;;;;;;5053582;28;20278;-49
2022/09/11 03:49:09;;;;;;;21.73;16.65;;;17.00;99.90;;;;;;5051534;28;20304;-44
2022/09/11 03:51:35;;;;;;;23.42;17.35;;;16.90;99.90;;;;;;5055726;28;20191;-50
2022/09/11 03:54:02;;;;;;;23.23;17.67;;;16.90;99.90;;;;;;5054156;28;20186;-51
2022/09/11 03:56:29;;;;;;;21.25;17.23;;;16.90;99.90;;;;;;5054568;28;20197;-49
2022/09/11 03:58:56;;;;;;;22.48;17.50;;;16.90;99.90;;;;;;5053577;28;20431;-51
2022/09/11 04:01:22;;;;;;;19.80;16.77;;;16.90;99.90;;;;;;5062449;28;20337;-48
2022/09/11 04:03:50;;;;;;;20.52;17.27;;;16.80;99.90;;;;;;5054885;28;20649;-48
2022/09/11 04:06:27;;;;;;;20.95;16.65;;;16.80;99.90;;;;;;5071595;28;20171;-47
2022/09/11 04:08:54;;;;;;;19.25;17.15;;;16.80;99.90;;;;;;5069817;28;20256;-46
2022/09/11 04:11:21;;;;;;;21.65;16.70;;;16.80;99.90;;;;;;5049911;28;20635;-51
2022/09/11 04:13:48;;;;;;;23.85;17.42;;;16.80;99.90;;;;;;5055110;28;20179;-50
2022/09/11 04:16:18;;;;;;;21.45;16.90;;;16.70;99.90;;;;;;5055206;28;20179;-51
2022/09/11 04:18:48;;;;;;;23.33;16.42;;;16.70;99.90;;;;;;5054288;28;20171;-48
2022/09/11 04:21:16;;;;;;;20.17;17.63;;;16.70;99.90;;;;;;5047851;28;20447;-49
2022/09/11 04:23:44;;;;;;;24.77;18.20;;;16.70;99.90;;;;;;5046815;28;20172;-50
2022/09/11 04:26:16;;;;;;;20.60;17.52;;;16.70;99.90;;;;;;5053316;28;20216;-50
2022/09/11 04:28:44;;;;;;;19.67;17.33;;;16.70;99.90;;;;;;5071164;28;20646;-48
2022/09/11 04:31:14;;;;;;;26.48;19.42;;;16.70;99.90;;;;;;5065887;28;20204;-51
2022/09/11 04:33:40;;;;;;;22.63;18.30;;;16.70;99.90;;;;;;5066365;28;20273;-50
2022/09/11 04:36:09;;;;;;;25.40;17.10;;;16.70;99.90;;;;;;5053925;28;20186;-55
2022/09/11 04:38:35;;;;;;;19.33;16.23;;;16.70;99.90;;;;;;5054318;28;20194;-48
2022/09/11 04:41:03;;;;;;;26.00;18.70;;;16.70;99.90;;;;;;5053382;28;20631;-46
2022/09/11 04:43:30;;;;;;;26.48;18.48;;;16.60;99.90;;;;;;5056257;28;20191;-50
2022/09/11 04:46:14;;;;;;;23.38;17.15;;;16.60;99.90;;;;;;5062545;28;20187;-46
2022/09/11 04:48:46;;;;;;;25.85;17.65;;;16.60;99.90;;;;;;5051366;28;20167;-50
2022/09/11 04:51:24;;;;;;;24.23;17.83;;;16.60;99.90;;;;;;5068660;28;20180;-52
2022/09/11 04:53:51;;;;;;;22.35;19.02;;;16.50;99.90;;;;;;5046305;28;20265;-60
2022/09/11 04:56:19;;;;;;;24.60;18.88;;;16.50;99.90;;;;;;5053902;28;20180;-50
2022/09/11 04:58:52;;;;;;;22.45;18.48;;;16.50;99.90;;;;;;5051901;28;20183;-50
2022/09/11 05:01:22;;;;;;;24.20;18.40;;;16.50;99.90;;;;;;5042017;28;20239;-50
2022/09/11 05:03:51;;;;;;;21.23;17.98;;;16.50;99.90;;;;;;5066424;28;20349;-48
2022/09/11 05:06:17;;;;;;;21.70;18.20;;;16.50;99.90;;;;;;5054066;28;20203;-48
2022/09/11 05:08:46;;;;;;;21.17;18.05;;;16.50;99.90;;;;;;5053702;28;20270;-49
2022/09/11 05:11:17;;;;;;;27.92;18.88;;;16.50;99.90;;;;;;5051330;28;20642;-51
2022/09/11 05:13:43;;;;;;;23.83;19.27;;;16.50;99.90;;;;;;5065824;28;20704;-51
2022/09/11 05:16:13;;;;;;;24.10;18.92;;;16.60;99.90;;;;;;5054742;28;20168;-51
2022/09/11 05:18:41;;;;;;;26.20;19.38;;;16.50;99.90;;;;;;5034228;28;20191;-49
2022/09/11 05:21:14;;;;;;;23.92;19.10;;;16.50;99.90;;;;;;5043865;28;20181;-50
2022/09/11 05:23:41;;;;;;;23.48;19.05;;;16.50;99.90;;;;;;5062875;28;20172;-53
2022/09/11 05:26:13;;;;;;;24.55;18.25;;;16.40;99.90;;;;;;5052961;28;20179;-49
2022/09/11 05:28:39;;;;;;;26.92;19.02;;;16.40;99.90;;;;;;5035642;28;20246;-51
2022/09/11 05:31:15;;;;;;;24.08;19.15;;;16.40;99.90;;;;;;5034732;28;20208;-52
2022/09/11 05:33:42;;;;;;;28.42;19.45;;;16.50;99.90;;;;;;5042907;28;20171;-46
2022/09/11 05:36:09;;;;;;;23.35;18.30;;;16.40;99.90;;;;;;5045510;28;20628;-48
2022/09/11 05:38:38;;;;;;;24.35;18.90;;;16.40;99.90;;;;;;5045967;28;20191;-51
2022/09/11 05:41:10;;;;;;;35.33;21.80;;;16.40;99.90;;;;;;5053420;28;20175;-50
2022/09/11 05:43:38;;;;;;;31.77;21.35;;;16.40;99.90;;;;;;5053183;28;20181;-51
2022/09/11 05:46:05;;;;;;;25.58;19.90;;;16.40;99.90;;;;;;5043528;28;20175;-53
2022/09/11 05:48:35;;;;;;;27.35;20.05;;;16.40;99.90;;;;;;5062092;28;20623;-53
2022/09/11 05:51:06;;;;;;;27.90;19.88;;;16.40;99.90;;;;;;5050189;28;20249;-52
2022/09/11 05:53:33;;;;;;;26.30;21.10;;;16.40;99.90;;;;;;5033491;28;20172;-52
2022/09/11 05:56:06;;;;;;;25.40;20.67;;;16.40;99.90;;;;;;5058829;28;20164;-51
2022/09/11 05:58:32;;;;;;;25.48;20.45;;;16.40;99.90;;;;;;5065619;28;20184;-53
2022/09/11 06:01:19;;;;;;;28.00;20.40;;;16.40;99.90;;;;;;5052062;28;20215;-52
2022/09/11 06:03:54;;;;;;;30.67;21.85;;;16.50;99.90;;;;;;5051810;28;20270;-50
2022/09/11 06:06:23;;;;;;;31.92;22.80;;;16.50;99.90;;;;;;5054746;28;20180;-51
2022/09/11 06:08:50;;;;;;;45.30;32.45;;;16.60;99.90;;;;;;5042162;28;20179;-51
2022/09/11 06:11:17;;;;;;;32.17;24.60;;;16.60;99.90;;;;;;5044607;28;20184;-50
2022/09/11 06:13:46;;;;;;;27.92;21.35;;;16.60;99.90;;;;;;5050926;28;20336;-47
2022/09/11 06:16:18;;;;;;;25.55;20.02;;;16.70;99.90;;;;;;5052219;28;20183;-47
2022/09/11 06:18:47;;;;;;;24.05;19.27;;;16.70;99.90;;;;;;5051405;28;20167;-50
2022/09/11 06:21:18;;;;;;;24.65;19.02;;;16.70;99.90;;;;;;5036371;28;20186;-50
2022/09/11 06:23:54;;;;;;;25.35;19.75;;;16.80;99.90;;;;;;5044750;28;20176;-49
2022/09/11 06:26:22;;;;;;;27.05;19.90;;;16.80;99.90;;;;;;5048952;28;20192;-51
2022/09/11 06:28:52;;;;;;;25.42;20.13;;;16.80;99.90;;;;;;5067960;28;20186;-49
2022/09/11 06:31:21;;;;;;;25.17;19.83;;;16.90;99.90;;;;;;5051081;28;20175;-48
2022/09/11 06:33:46;;;;;;;23.33;20.05;;;16.90;99.90;;;;;;5061304;28;20267;-51
2022/09/11 06:36:16;;;;;;;24.25;18.98;;;17.00;99.90;;;;;;5033110;28;20254;-51
2022/09/11 06:38:44;;;;;;;24.10;19.08;;;17.00;99.90;;;;;;5055985;28;20175;-49
2022/09/11 06:41:14;;;;;;;30.52;18.33;;;17.00;99.90;;;;;;5050087;28;20577;-48
2022/09/11 06:43:42;;;;;;;22.83;17.23;;;17.10;99.90;;;;;;5047942;28;20639;-49
2022/09/11 06:46:10;;;;;;;20.75;16.48;;;17.10;99.90;;;;;;5047736;28;20179;-50
2022/09/11 06:48:36;;;;;;;26.88;17.48;;;17.20;99.90;;;;;;5044100;28;20645;-53
2022/09/11 06:51:06;;;;;;;23.13;17.98;;;17.20;99.90;;;;;;5051741;28;20175;-47
2022/09/11 06:53:33;;;;;;;23.92;18.20;;;17.30;99.90;;;;;;5047644;28;20588;-48
2022/09/11 06:56:05;;;;;;;21.08;16.88;;;17.40;99.90;;;;;;5060005;28;20179;-57
2022/09/11 06:58:32;;;;;;;21.10;17.08;;;17.40;99.90;;;;;;5040919;28;20647;-50
2022/09/11 07:01:18;;;;;;;23.13;16.42;;;17.50;99.90;;;;;;5049885;28;20234;-57
2022/09/11 07:03:49;;;;;;;20.92;15.60;;;17.50;99.90;;;;;;5049061;28;20215;-48
2022/09/11 07:06:22;;;;;;;15.23;12.15;;;17.60;99.90;;;;;;5065294;28;20624;-49
2022/09/11 07:08:54;;;;;;;15.40;10.63;;;17.60;99.90;;;;;;5049266;28;20170;-50
2022/09/11 07:11:20;;;;;;;17.88;12.68;;;17.70;99.90;;;;;;5061250;28;20198;-50
2022/09/11 07:13:47;;;;;;;17.63;12.77;;;17.70;99.90;;;;;;5060772;28;20171;-51
2022/09/11 07:16:15;;;;;;;14.55;12.02;;;17.80;99.90;;;;;;5033535;28;20191;-51
2022/09/11 07:18:44;;;;;;;15.70;11.98;;;17.80;99.90;;;;;;5030671;28;20207;-53
2022/09/11 07:21:17;;;;;;;21.02;13.63;;;17.90;99.90;;;;;;5066268;28;20336;-53
2022/09/11 07:23:53;;;;;;;21.00;11.18;;;17.90;99.90;;;;;;5046656;28;20199;-53
2022/09/11 07:26:21;;;;;;;15.25;11.50;;;18.00;99.90;;;;;;5050154;28;20212;-63
2022/09/11 07:28:50;;;;;;;11.07;8.93;;;18.00;99.90;;;;;;5048565;28;20533;-64
2022/09/11 07:31:19;;;;;;;19.80;12.52;;;18.10;99.90;;;;;;5048452;28;20290;-62
2022/09/11 07:33:47;;;;;;;13.02;10.35;;;18.10;99.90;;;;;;5054286;28;20203;-59
2022/09/11 07:37:01;;;;;;;17.35;10.57;;;18.20;99.90;;;;;;5119117;27;20649;-51
2022/09/11 07:39:27;;;;;;;16.05;10.38;;;18.20;99.90;;;;;;5116396;28;20189;-54
2022/09/11 07:41:58;;;;;;;15.07;9.98;;;18.30;99.90;;;;;;5083121;28;20216;-53
2022/09/11 07:44:27;;;;;;;15.80;9.75;;;18.40;99.90;;;;;;5076927;28;21200;-51
2022/09/11 07:46:54;;;;;;;16.98;9.65;;;18.40;99.90;;;;;;5072762;28;20625;-50
2022/09/11 07:49:20;;;;;;;15.18;9.63;;;18.40;99.90;;;;;;5087476;28;20176;-48
2022/09/11 07:51:46;;;;;;;16.00;9.50;;;18.40;99.90;;;;;;5087345;28;20181;-53
2022/09/11 07:54:17;;;;;;;11.23;6.75;;;18.50;99.90;;;;;;5075940;28;20612;-53
2022/09/11 07:56:43;;;;;;;11.90;6.00;;;18.60;99.90;;;;;;5070396;28;20223;-54
2022/09/11 07:59:10;;;;;;;9.43;5.60;;;18.60;99.90;;;;;;5078647;28;20273;-53
2022/09/11 08:01:43;;;;;;;13.80;5.70;;;18.60;99.90;;;;;;5085778;28;20189;-50
2022/09/11 08:04:13;;;;;;;9.88;5.03;;;18.70;99.90;;;;;;5087612;28;20205;-53
2022/09/11 08:06:39;;;;;;;7.53;4.50;;;18.80;99.90;;;;;;5074397;28;20177;-50
2022/09/11 08:09:13;;;;;;;10.15;5.18;;;18.80;99.90;;;;;;5071083;28;20291;-50
2022/09/11 08:11:47;;;;;;;10.93;4.95;;;18.80;99.90;;;;;;5076669;28;20182;-56
2022/09/11 08:14:16;;;;;;;12.43;5.78;;;18.90;99.90;;;;;;5096786;28;20178;-51
2022/09/11 08:16:42;;;;;;;12.80;7.05;;;18.90;99.90;;;;;;5088213;28;20283;-52
2022/09/11 08:19:14;;;;;;;10.63;6.03;;;19.00;99.90;;;;;;5096834;28;20193;-54
2022/09/11 08:21:41;;;;;;;8.35;4.47;;;19.10;99.90;;;;;;5102224;28;20178;-55
2022/09/11 08:24:08;;;;;;;7.35;4.57;;;19.20;99.90;;;;;;5101570;28;20185;-57
2022/09/11 08:26:35;;;;;;;8.20;4.90;;;19.20;99.90;;;;;;5084655;28;20181;-50
2022/09/11 08:29:01;;;;;;;12.50;5.50;;;19.30;99.90;;;;;;5080093;28;20174;-50
2022/09/11 08:31:32;;;;;;;8.68;4.75;;;19.40;99.90;;;;;;5088035;28;20183;-50
2022/09/11 08:33:59;;;;;;;9.27;4.95;;;19.50;99.90;;;;;;5063290;28;20316;-50
2022/09/11 08:36:27;;;;;;;11.93;4.35;;;19.50;99.90;;;;;;5072296;28;20258;-44
2022/09/11 08:38:54;;;;;;;8.55;3.80;;;19.60;99.90;;;;;;5078018;28;20189;-48
2022/09/11 08:41:22;;;;;;;5.47;3.72;;;19.80;99.90;;;;;;5091528;28;20234;-46
2022/09/11 08:44:08;;;;;;;5.53;3.50;;;19.90;99.90;;;;;;5087414;28;20268;-49
2022/09/11 08:46:42;;;;;;;8.30;3.67;;;20.10;99.90;;;;;;5038134;28;20187;-53
2022/09/11 08:49:23;;;;;;;9.60;3.55;;;20.20;99.90;;;;;;5059004;28;20174;-54
2022/09/11 08:51:53;;;;;;;6.13;3.38;;;20.30;99.90;;;;;;5093524;28;20169;-50
2022/09/11 08:54:33;;;;;;;5.32;3.08;;;20.40;99.90;;;;;;5066452;28;20279;-46
2022/09/11 08:57:20;;;;;;;5.72;2.78;;;20.50;99.90;;;;;;5077795;28;20177;-47
2022/09/11 08:59:58;;;;;;;5.72;2.90;;;20.70;99.90;;;;;;5067114;28;20171;-56
2022/09/11 09:02:57;;;;;;;6.63;3.08;;;20.80;99.90;;;;;;5081378;28;20707;-49
2022/09/11 09:05:44;;;;;;;6.85;2.92;;;21.00;99.90;;;;;;5028161;28;20206;-47
2022/09/11 09:08:36;;;;;;;5.63;2.70;;;21.10;99.90;;;;;;5074442;28;20205;-49
2022/09/11 09:11:10;;;;;;;5.20;2.60;;;21.30;99.90;;;;;;5063824;28;20189;-51
2022/09/11 09:13:58;;;;;;;4.97;2.92;;;21.30;99.90;;;;;;5070062;28;20206;-49
2022/09/11 09:16:49;;;;;;;4.97;3.13;;;21.40;99.90;;;;;;5061237;28;20249;-50
2022/09/11 09:19:17;;;;;;;8.77;3.75;;;21.40;99.90;;;;;;5073971;28;20197;-53
2022/09/11 09:22:19;;;;;;;9.27;3.63;;;21.50;99.90;;;;;;5059157;28;20190;-48
2022/09/11 09:24:53;;;;;;;6.60;3.33;;;21.60;99.90;;;;;;5070937;28;20182;-51
2022/09/11 09:27:35;;;;;;;6.32;3.08;;;21.80;99.90;;;;;;5093505;28;20223;-51
2022/09/11 09:30:05;;;;;;;5.82;3.30;;;21.90;99.90;;;;;;5071989;28;20174;-53
2022/09/11 09:32:41;;;;;;;4.68;2.67;;;22.00;99.90;;;;;;5074410;28;20269;-49
2022/09/11 09:35:40;;;;;;;5.20;3.05;;;22.10;99.90;;;;;;5056597;28;20237;-49
2022/09/11 09:38:20;;;;;;;8.27;4.13;;;22.30;99.90;;;;;;5072999;28;20336;-50
2022/09/11 09:40:55;;;;;;;8.95;4.05;;;22.50;99.90;;;;;;5070045;28;20688;-46
2022/09/11 09:43:21;;;;;;;11.98;4.65;;;22.60;99.90;;;;;;5061888;28;20549;-51
2022/09/11 09:46:05;;;;;;;8.30;4.68;;;22.80;99.90;;;;;;5088249;28;20215;-52
2022/09/11 09:48:34;;;;;;;7.60;3.97;;;22.80;99.90;;;;;;5088249;28;20637;-51
2022/09/11 09:51:02;;;;;;;7.93;4.28;;;23.00;99.90;;;;;;5093573;28;20256;-53
2022/09/11 09:53:38;;;;;;;8.77;4.50;;;23.10;99.90;;;;;;5079676;28;20182;-52
2022/09/11 09:56:04;;;;;;;8.45;4.57;;;23.10;99.90;;;;;;5072609;28;20320;-55
2022/09/11 09:58:41;;;;;;;9.52;4.20;;;23.10;99.90;;;;;;5076157;28;20248;-48
2022/09/11 10:01:44;;;;;;;6.60;4.00;;;23.10;99.90;;;;;;5094762;28;20194;-51
2022/09/11 10:04:13;;;;;;;8.02;4.05;;;23.00;99.90;;;;;;5077040;28;23018;-60
2022/09/11 10:06:40;;;;;;;11.65;4.50;;;22.90;99.90;;;;;;5073920;28;20220;-55
2022/09/11 10:09:24;;;;;;;10.00;4.30;;;22.80;99.90;;;;;;5082154;28;20197;-52
2022/09/11 10:12:01;;;;;;;6.78;4.63;;;22.80;99.70;;;;;;5107559;28;20201;-56
2022/09/11 10:14:31;;;;;;;7.68;4.13;;;22.80;99.50;;;;;;5057773;28;20185;-51
2022/09/11 10:16:59;;;;;;;6.88;3.70;;;22.70;99.40;;;;;;5073378;28;20221;-49
2022/09/11 10:19:42;;;;;;;6.32;3.78;;;22.60;99.40;;;;;;5083222;28;20223;-54
2022/09/11 10:22:44;;;;;;;7.03;3.90;;;22.60;99.40;;;;;;5073637;28;20189;-49
2022/09/11 10:25:22;;;;;;;11.40;4.00;;;22.60;99.40;;;;;;4999260;28;20652;-51
2022/09/11 10:28:07;;;;;;;7.72;4.35;;;22.60;99.30;;;;;;5066083;28;20374;-49
2022/09/11 10:30:44;;;;;;;6.82;4.10;;;22.60;99.30;;;;;;5094023;28;20276;-51
2022/09/11 10:33:30;;;;;;;9.73;4.13;;;22.60;99.30;;;;;;5072832;28;20280;-48
2022/09/11 10:35:59;;;;;;;10.68;4.80;;;22.60;99.20;;;;;;5071451;28;20226;-49
2022/09/11 10:38:30;;;;;;;5.05;4.15;;;22.60;99.20;;;;;;5078723;28;20265;-49
2022/09/11 10:40:57;;;;;;;9.27;5.65;;;22.50;99.20;;;;;;5093960;28;20163;-53
2022/09/11 10:43:32;;;;;;;9.40;4.10;;;22.60;99.40;;;;;;5090119;28;20177;-52
2022/09/11 10:46:16;;;;;;;7.40;4.20;;;22.60;99.50;;;;;;5072134;28;20554;-46
2022/09/11 10:48:42;;;;;;;11.38;4.80;;;22.60;99.60;;;;;;5074152;28;20291;-50
2022/09/11 10:51:11;;;;;;;7.07;4.40;;;22.60;99.60;;;;;;5071193;28;20189;-49
2022/09/11 10:54:04;;;;;;;12.75;5.00;;;22.60;99.50;;;;;;5083309;28;20231;-49
2022/09/11 10:56:34;;;;;;;6.15;4.40;;;22.60;99.60;;;;;;5072614;28;20195;-50
2022/09/11 10:59:06;;;;;;;6.07;4.30;;;22.60;99.60;;;;;;5074634;28;20205;-47
2022/09/11 11:01:31;;;;;;;8.00;4.63;;;22.60;99.50;;;;;;5073452;28;20571;-51
2022/09/11 11:03:57;;;;;;;7.85;4.07;;;22.60;99.50;;;;;;5082703;28;20170;-49
2022/09/11 11:07:05;;;;;;;8.25;4.35;;;22.60;99.60;;;;;;5072262;28;20240;-53
2022/09/11 11:09:42;;;;;;;8.05;4.35;;;22.60;99.70;;;;;;5005304;28;20619;-54
2022/09/11 11:12:16;;;;;;;9.50;4.70;;;22.50;99.70;;;;;;5067368;28;20627;-51
2022/09/11 11:14:53;;;;;;;8.15;3.95;;;22.50;99.80;;;;;;5073349;28;20626;-48
2022/09/11 11:17:37;;;;;;;8.93;3.58;;;22.50;99.90;;;;;;5072407;28;20182;-50
2022/09/11 11:20:22;;;;;;;8.82;3.92;;;22.50;99.90;;;;;;5084041;28;20201;-50
2022/09/11 11:22:55;;;;;;;10.10;3.28;;;22.40;99.90;;;;;;5072802;28;20167;-46
2022/09/11 11:25:33;;;;;;;7.00;3.42;;;22.40;99.90;;;;;;5090589;28;20190;-49
2022/09/11 11:28:29;;;;;;;6.63;3.38;;;22.40;99.90;;;;;;5071890;28;20178;-51
2022/09/11 11:31:01;;;;;;;6.13;3.50;;;22.30;99.90;;;;;;5022674;28;20201;-46
2022/09/11 11:33:41;;;;;;;7.13;3.40;;;22.30;99.90;;;;;;5074629;28;20183;-46
2022/09/11 11:36:18;;;;;;;8.20;3.67;;;22.30;99.90;;;;;;5092138;28;20232;-45
2022/09/11 11:39:05;;;;;;;4.90;3.47;;;22.30;99.90;;;;;;5091366;28;20173;-46
2022/09/11 11:41:37;;;;;;;9.57;4.22;;;22.40;99.90;;;;;;5079360;28;20595;-48
2022/09/11 11:44:09;;;;;;;6.72;4.00;;;22.50;99.90;;;;;;5072076;28;20198;-50
2022/09/11 11:46:41;;;;;;;6.70;3.58;;;22.50;99.90;;;;;;5082434;28;20181;-50
2022/09/11 11:49:18;;;;;;;7.03;4.00;;;22.60;99.90;;;;;;5083308;28;20183;-49
2022/09/11 11:52:11;;;;;;;9.05;3.70;;;22.70;99.90;;;;;;5079013;28;20182;-53
2022/09/11 11:55:00;;;;;;;7.72;3.63;;;22.80;99.90;;;;;;5096513;28;20185;-49
2022/09/11 11:57:32;;;;;;;6.78;3.55;;;22.90;99.90;;;;;;5079634;28;20201;-48
2022/09/11 12:00:02;;;;;;;9.60;3.22;;;23.00;99.80;;;;;;5092405;28;20231;-50
2022/09/11 12:02:55;;;;;;;8.57;3.58;;;23.10;99.40;;;;;;5091562;28;20250;-51
2022/09/11 12:05:25;;;;;;;5.15;3.42;;;23.20;99.20;;;;;;5094256;28;20226;-50
2022/09/11 12:07:51;;;;;;;8.55;3.65;;;23.40;99.10;;;;;;5093826;28;20166;-46
2022/09/11 12:10:21;;;;;;;7.45;3.80;;;23.50;98.80;;;;;;5093631;28;20534;-52
2022/09/11 12:12:54;;;;;;;5.55;3.42;;;23.50;98.40;;;;;;5113191;28;20229;-50
2022/09/11 12:15:23;;;;;;;8.38;3.97;;;23.50;98.20;;;;;;5097135;28;20206;-51
2022/09/11 12:18:02;;;;;;;7.40;3.90;;;23.40;98.00;;;;;;5081532;28;20207;-52
2022/09/11 12:20:43;;;;;;;7.05;3.22;;;23.40;97.60;;;;;;5070208;28;20516;-50
2022/09/11 12:23:31;;;;;;;8.18;3.60;;;23.30;97.80;;;;;;5075268;28;20182;-49
2022/09/11 12:26:26;;;;;;;9.75;3.70;;;23.30;97.90;;;;;;5068987;28;20189;-51
2022/09/11 12:29:14;;;;;;;5.28;3.45;;;23.20;97.90;;;;;;5060892;28;20179;-53
2022/09/11 12:31:49;;;;;;;6.25;4.00;;;23.10;98.00;;;;;;5076263;28;20177;-51
2022/09/11 12:34:26;;;;;;;5.80;3.42;;;23.10;98.10;;;;;;5075908;28;20166;-59
2022/09/11 12:37:02;;;;;;;8.38;3.60;;;23.20;98.20;;;;;;5090643;28;20237;-48
2022/09/11 12:39:37;;;;;;;8.02;3.65;;;23.20;98.30;;;;;;5091000;28;20174;-55
2022/09/11 12:42:27;;;;;;;7.93;3.30;;;23.40;98.40;;;;;;5074313;28;20217;-47
2022/09/11 12:44:53;;;;;;;5.55;3.20;;;23.60;98.10;;;;;;5096169;28;20170;-48
2022/09/11 12:47:33;;;;;;;7.60;2.72;;;23.80;97.80;;;;;;5096333;28;20193;-51
2022/09/11 12:50:09;;;;;;;3.53;2.60;;;24.00;97.20;;;;;;5079241;28;22316;-56
2022/09/11 12:52:48;;;;;;;6.78;3.28;;;24.20;96.70;;;;;;5088937;28;20188;-50
2022/09/11 12:55:38;;;;;;;6.15;2.92;;;24.20;96.20;;;;;;5091621;28;20201;-52
2022/09/11 12:58:20;;;;;;;6.05;2.90;;;24.20;95.40;;;;;;5076477;28;20625;-52
2022/09/11 13:00:49;;;;;;;7.20;3.00;;;24.00;95.50;;;;;;5060137;28;20246;-51
2022/09/11 13:03:21;;;;;;;5.55;2.72;;;23.90;95.30;;;;;;5072586;28;20731;-52